Time;durP1;ratioP1;P1;durP2;ratioP2;P2;SDS_P1;SDS_P2;PMS_P1;PMS_P2;Temp;Humidity;BMP_temperature;BMP_pressure;BME280_temperature;BME280_humidity;BME280_pressure;Samples;Min_cycle;Max_cycle;Signal;HPM_P1;HPM_P2
2022/11/12 00:00:18;;;;;;;;;27.75;25.25;;;;;13.10;69.49;102464.94;5058118;28;45188;-65
2022/11/12 00:02:43;;;;;;;;;33.75;28.00;;;;;13.09;69.71;102458.63;5066761;28;45336;-64
2022/11/12 00:05:09;;;;;;;;;26.00;21.75;;;;;13.06;70.06;102458.47;5069624;28;46100;-64
2022/11/12 00:07:34;;;;;;;;;37.00;29.00;;;;;12.93;69.71;102445.38;5058658;28;45127;-64
2022/11/12 00:10:00;;;;;;;;;20.75;20.75;;;;;12.87;70.14;102443.38;5053505;28;44945;-64
2022/11/12 00:12:25;;;;;;;;;27.75;22.75;;;;;12.88;70.45;102449.63;5053479;28;45298;-63
2022/11/12 00:14:50;;;;;;;;;22.25;22.00;;;;;12.97;70.12;102459.84;5052928;28;45322;-64
2022/11/12 00:17:16;;;;;;;;;27.25;22.75;;;;;12.93;69.85;102456.13;5053379;28;45027;-65
2022/11/12 00:19:41;;;;;;;;;34.00;27.25;;;;;12.95;69.63;102467.88;5054723;28;45160;-63
2022/11/12 00:22:06;;;;;;;;;26.00;23.25;;;;;12.98;70.43;102462.59;5054071;28;45334;-64
2022/11/12 00:24:32;;;;;;;;;29.00;28.75;;;;;12.90;70.13;102458.66;5034569;28;47082;-63
2022/11/12 00:26:57;;;;;;;;;24.50;18.25;;;;;12.95;70.55;102470.53;5064740;28;46063;-64
2022/11/12 00:29:22;;;;;;;;;26.50;20.50;;;;;12.98;69.77;102473.34;5056409;28;45075;-63
2022/11/12 00:31:48;;;;;;;;;28.25;26.00;;;;;12.94;69.74;102459.75;5053301;28;45119;-64
2022/11/12 00:34:13;;;;;;;;;25.00;22.75;;;;;12.87;70.14;102442.47;5052416;28;45732;-65
2022/11/12 00:36:38;;;;;;;;;21.75;20.00;;;;;12.88;70.34;102438.91;5052757;28;45311;-63
2022/11/12 00:39:04;;;;;;;;;21.25;18.50;;;;;13.02;70.35;102458.31;5053238;28;45065;-65
2022/11/12 00:41:29;;;;;;;;;19.00;17.75;;;;;13.04;69.52;102464.66;5053490;28;45059;-65
2022/11/12 00:43:55;;;;;;;;;26.00;20.75;;;;;13.05;69.72;102461.09;5049572;28;57180;-64
2022/11/12 00:46:20;;;;;;;;;27.25;21.75;;;;;12.91;70.28;102442.63;5067935;28;45505;-64
2022/11/12 00:48:46;;;;;;;;;22.25;21.00;;;;;13.04;69.32;102459.28;5052798;28;45041;-64
2022/11/12 00:51:11;;;;;;;;;23.00;22.00;;;;;13.03;69.74;102455.69;5052978;28;44978;-65
2022/11/12 00:53:36;;;;;;;;;23.25;19.50;;;;;13.02;68.99;102451.16;5053840;28;45715;-65
2022/11/12 00:56:04;;;;;;;;;21.00;20.00;;;;;12.97;69.96;102433.97;5054813;28;52167;-65
2022/11/12 00:58:30;;;;;;;;;24.00;23.00;;;;;13.03;69.63;102452.06;5062885;28;45060;-65
2022/11/12 01:00:56;;;;;;;;;26.50;23.75;;;;;13.03;69.38;102455.69;5052715;28;45541;-64
2022/11/12 01:03:21;;;;;;;;;24.25;21.50;;;;;12.97;69.72;102438.38;5055611;28;44989;-64
2022/11/12 01:05:47;;;;;;;;;24.75;22.25;;;;;13.01;69.81;102451.09;5054054;28;45169;-64
2022/11/12 01:08:12;;;;;;;;;26.50;19.25;;;;;13.02;70.08;102453.84;5056615;28;45235;-64
2022/11/12 01:10:38;;;;;;;;;24.75;22.25;;;;;13.01;69.30;102454.69;5048954;28;45550;-65
2022/11/12 01:13:03;;;;;;;;;28.25;22.25;;;;;13.00;69.62;102454.63;5051723;28;45184;-65
2022/11/12 01:15:28;;;;;;;;;17.00;17.00;;;;;12.88;70.33;102439.81;5052116;28;56006;-64
2022/11/12 01:17:54;;;;;;;;;20.00;18.75;;;;;12.87;70.02;102439.78;5052396;28;45140;-63
2022/11/12 01:20:19;;;;;;;;;20.25;16.50;;;;;12.82;70.56;102449.34;5051583;28;44859;-64
2022/11/12 01:22:44;;;;;;;;;22.00;19.25;;;;;12.78;70.88;102445.63;5051287;28;45244;-63
2022/11/12 01:25:10;;;;;;;;;24.25;21.25;;;;;12.73;70.47;102439.16;5057746;28;45493;-63
2022/11/12 01:27:35;;;;;;;;;18.75;18.75;;;;;12.71;71.19;102439.06;5052363;28;45093;-63
2022/11/12 01:30:00;;;;;;;;;22.00;17.25;;;;;12.58;70.84;102417.94;5052183;28;45228;-64
2022/11/12 01:32:26;;;;;;;;;18.00;17.50;;;;;12.67;71.07;102428.13;5055530;28;45134;-64
2022/11/12 01:34:52;;;;;;;;;23.75;15.75;;;;;12.60;71.40;102413.53;5054293;28;45108;-64
2022/11/12 01:37:18;;;;;;;;;20.25;17.75;;;;;12.64;70.64;102417.31;5052934;28;45294;-64
2022/11/12 01:39:43;;;;;;;;;18.50;18.50;;;;;12.68;71.13;102433.56;5043452;28;45315;-64
2022/11/12 01:42:09;;;;;;;;;20.50;17.75;;;;;12.72;70.99;102434.66;5058055;28;45168;-64
2022/11/12 01:44:37;;;;;;;;;19.50;18.25;;;;;12.77;70.01;102432.16;5055575;28;44985;-63
2022/11/12 01:47:10;;;;;;;;;20.00;16.75;;;;;12.79;70.40;102435.84;5061328;28;44954;-63
2022/11/12 01:49:48;;;;;;;;;20.25;19.50;;;;;12.71;70.07;102411.34;5050736;28;45361;-63
2022/11/12 01:52:26;;;;;;;;;22.50;18.00;;;;;12.83;70.61;102425.28;5048653;28;46059;-64
2022/11/12 01:54:54;;;;;;;;;22.00;19.00;;;;;12.80;70.80;102419.81;5047099;28;45095;-63
2022/11/12 01:57:26;;;;;;;;;20.50;19.25;;;;;12.66;70.50;102375.38;5051435;28;45574;-64
2022/11/12 01:59:56;;;;;;;;;24.25;23.00;;;;;12.83;70.06;102394.88;5049340;28;45034;-63
2022/11/12 02:02:22;;;;;;;;;26.50;19.75;;;;;12.89;70.42;102411.25;5053428;28;45283;-64
2022/11/12 02:04:49;;;;;;;;;19.50;17.75;;;;;12.86;69.67;102422.75;5048137;28;45618;-65
2022/11/12 02:07:16;;;;;;;;;17.50;16.75;;;;;12.80;70.34;102417.13;5034292;28;45078;-66
2022/11/12 02:09:41;;;;;;;;;21.00;18.75;;;;;12.72;70.28;102415.88;5052871;28;45243;-65
2022/11/12 02:12:08;;;;;;;;;21.75;17.00;;;;;12.68;70.47;102409.44;5049126;28;45639;-64
2022/11/12 02:14:52;;;;;;;;;20.25;16.00;;;;;12.75;69.65;102413.31;5048909;28;45259;-64
2022/11/12 02:17:17;;;;;;;;;22.50;18.00;;;;;12.81;70.33;102418.03;5048560;28;45596;-64
2022/11/12 02:19:45;;;;;;;;;16.50;15.50;;;;;12.80;70.34;102432.28;5049283;28;45037;-64
2022/11/12 02:22:11;;;;;;;;;19.75;17.50;;;;;12.79;70.50;102438.53;5049245;28;45346;-64
2022/11/12 02:24:37;;;;;;;;;18.25;16.50;;;;;12.79;70.83;102435.84;5048686;28;45398;-64
2022/11/12 02:27:04;;;;;;;;;15.25;14.75;;;;;12.80;69.97;102437.66;5054518;28;45541;-63
2022/11/12 02:29:30;;;;;;;;;18.75;18.00;;;;;12.81;69.97;102426.09;5048752;28;45040;-64
2022/11/12 02:31:55;;;;;;;;;18.50;14.75;;;;;12.78;70.54;102408.06;5048835;28;46158;-64
2022/11/12 02:34:20;;;;;;;;;10.75;10.00;;;;;12.70;69.62;102396.09;5049118;28;45217;-64
2022/11/12 02:36:46;;;;;;;;;21.75;16.75;;;;;12.81;69.75;102418.94;5049490;28;45062;-66
2022/11/12 02:39:11;;;;;;;;;13.50;13.25;;;;;12.77;70.17;102406.25;5050035;28;44985;-63
2022/11/12 02:41:36;;;;;;;;;15.25;14.00;;;;;12.76;70.40;102400.84;5052502;28;45568;-63
2022/11/12 02:44:02;;;;;;;;;20.50;16.75;;;;;12.71;70.87;102406.91;5050177;28;45069;-64
2022/11/12 02:46:27;;;;;;;;;17.50;14.75;;;;;12.66;69.75;102410.22;5053807;28;45538;-64
2022/11/12 02:48:52;;;;;;;;;17.25;16.75;;;;;12.56;70.26;102419.63;5049445;28;45353;-64
2022/11/12 02:51:18;;;;;;;;;20.00;15.50;;;;;12.49;70.65;102401.44;5051518;28;49464;-65
2022/11/12 02:53:43;;;;;;;;;17.25;17.25;;;;;12.50;71.01;102392.53;5049598;28;45010;-65
2022/11/12 02:56:08;;;;;;;;;18.25;15.50;;;;;12.52;70.54;102385.47;5051370;28;45201;-64
2022/11/12 02:58:34;;;;;;;;;15.00;14.25;;;;;12.50;70.94;102388.06;5050595;28;53479;-63
2022/11/12 03:00:59;;;;;;;;;14.25;13.00;;;;;12.59;70.67;102406.38;5053254;28;45601;-64
2022/11/12 03:03:25;;;;;;;;;14.50;14.00;;;;;12.56;70.83;102395.50;5051149;28;45054;-65
2022/11/12 03:05:59;;;;;;;;;18.00;14.25;;;;;12.54;70.33;102397.19;5055735;28;45163;-64
2022/11/12 03:08:25;;;;;;;;;18.00;14.00;;;;;12.48;71.09;102403.19;5052090;28;45246;-64
2022/11/12 03:10:50;;;;;;;;;14.75;14.75;;;;;12.34;70.84;102396.28;5062056;28;45049;-65
2022/11/12 03:13:16;;;;;;;;;16.75;16.00;;;;;12.40;71.00;102390.28;5058599;28;45184;-64
2022/11/12 03:15:41;;;;;;;;;24.50;18.00;;;;;12.34;71.31;102381.13;5055094;28;45105;-64
2022/11/12 03:18:07;;;;;;;;;23.00;20.00;;;;;12.31;70.74;102375.63;5059223;28;45274;-63
2022/11/12 03:20:33;;;;;;;;;14.75;14.00;;;;;12.42;70.97;102389.50;5056687;28;45213;-63
2022/11/12 03:23:09;;;;;;;;;22.50;17.75;;;;;12.43;70.98;102383.28;5057298;28;45273;-64
2022/11/12 03:25:35;;;;;;;;;17.75;17.00;;;;;12.43;71.28;102372.56;5054280;28;45156;-63
2022/11/12 03:28:06;;;;;;;;;16.50;16.50;;;;;12.43;71.40;102385.06;5054613;28;45309;-63
2022/11/12 03:30:35;;;;;;;;;21.50;20.00;;;;;12.38;70.84;102389.31;5053591;28;45426;-63
2022/11/12 03:33:01;;;;;;;;;21.25;19.25;;;;;12.32;71.68;102368.50;5060588;28;45095;-63
2022/11/12 03:35:26;;;;;;;;;20.00;16.25;;;;;12.34;70.68;102365.06;5054086;28;45500;-63
2022/11/12 03:37:52;;;;;;;;;18.50;16.00;;;;;12.34;71.84;102367.72;5051848;28;45332;-63
2022/11/12 03:40:19;;;;;;;;;17.00;14.25;;;;;12.41;71.95;102376.06;5050896;28;45487;-65
2022/11/12 03:42:46;;;;;;;;;14.25;12.75;;;;;12.42;70.83;102377.88;5051348;28;45028;-65
2022/11/12 03:45:12;;;;;;;;;17.25;17.25;;;;;12.47;70.96;102378.97;5060403;28;45342;-64
2022/11/12 03:47:45;;;;;;;;;15.50;15.50;;;;;12.43;70.83;102361.84;5056862;28;45317;-64
2022/11/12 03:50:11;;;;;;;;;15.75;14.00;;;;;12.49;70.88;102382.69;5052075;28;45057;-64
2022/11/12 03:52:37;;;;;;;;;12.50;11.00;;;;;12.41;70.53;102370.69;5051931;28;45327;-63
2022/11/12 03:55:04;;;;;;;;;20.25;16.50;;;;;12.50;70.94;102379.13;5051063;28;44916;-64
2022/11/12 03:57:30;;;;;;;;;20.00;15.50;;;;;12.49;71.10;102383.59;5051102;28;45324;-63
2022/11/12 03:59:56;;;;;;;;;19.50;17.00;;;;;12.48;70.75;102391.56;5051268;28;44906;-64
2022/11/12 04:02:21;;;;;;;;;14.00;12.50;;;;;12.42;71.13;102389.50;5051274;28;52707;-64
2022/11/12 04:10:14;;;;;;;;;19.00;15.00;;;;;12.29;70.95;102395.16;5053149;28;45330;-63
2022/11/12 04:15:23;;;;;;;;;16.00;15.75;;;;;12.26;71.50;102398.63;5054061;28;45501;-64
2022/11/12 04:21:49;;;;;;;;;17.00;15.50;;;;;12.33;71.19;102407.88;5053488;28;45211;-63
2022/11/12 04:23:30;;;;;;;;;16.00;15.25;;;;;12.24;71.36;102386.00;5053057;28;45057;-64
2022/11/12 04:30:14;;;;;;;;;16.25;16.25;;;;;12.19;70.51;102375.06;5052186;28;45222;-63
2022/11/12 04:31:25;;;;;;;;;17.50;16.00;;;;;12.23;70.79;102385.06;5052082;28;45723;-63
2022/11/12 04:33:50;;;;;;;;;20.50;18.50;;;;;12.26;71.88;102395.94;5052514;28;54932;-63
2022/11/12 04:36:15;;;;;;;;;17.75;16.50;;;;;12.29;71.07;102389.78;5034852;28;45153;-64
2022/11/12 04:38:41;;;;;;;;;23.75;17.00;;;;;12.37;70.81;102399.09;5049969;28;45478;-63
2022/11/12 04:46:34;;;;;;;;;19.50;16.00;;;;;12.32;70.59;102388.19;5053482;28;45061;-64
2022/11/12 04:49:00;;;;;;;;;19.75;16.75;;;;;12.31;70.75;102397.06;5053319;28;45327;-64
2022/11/12 04:54:09;;;;;;;;;19.75;17.50;;;;;12.16;69.94;102373.16;5051524;28;45039;-63
2022/11/12 04:56:34;;;;;;;;;16.25;14.25;;;;;12.32;70.28;102385.50;5053126;28;45112;-64
2022/11/12 04:58:59;;;;;;;;;21.00;16.75;;;;;12.23;70.64;102365.41;5052552;28;45236;-64
2022/11/12 05:01:25;;;;;;;;;17.50;15.25;;;;;12.39;70.67;102393.81;5044916;28;52051;-64
2022/11/12 05:03:50;;;;;;;;;13.00;11.75;;;;;12.30;69.85;102392.53;5052162;28;49246;-64
2022/11/12 05:08:59;;;;;;;;;19.75;15.75;;;;;12.33;70.12;102389.09;5052330;28;45086;-64
2022/11/12 05:11:25;;;;;;;;;21.50;15.00;;;;;12.34;70.00;102381.13;5063767;28;59406;-64
2022/11/12 05:13:50;;;;;;;;;14.00;13.00;;;;;12.37;70.04;102384.78;5051064;28;50186;-64
2022/11/12 05:16:15;;;;;;;;;14.75;14.75;;;;;12.32;70.58;102380.16;5049616;28;45518;-64
2022/11/12 05:18:40;;;;;;;;;17.00;17.00;;;;;12.39;70.15;102388.44;5041067;28;45752;-64
2022/11/12 05:22:04;;;;;;;;;16.75;14.50;;;;;12.38;70.38;102392.91;5049742;28;45697;-63
2022/11/12 05:23:51;;;;;;;;;21.25;16.50;;;;;12.37;70.19;102392.81;5051996;28;45086;-64
2022/11/12 05:26:17;;;;;;;;;24.75;21.75;;;;;12.27;70.68;102391.50;5052484;28;45132;-63
2022/11/12 05:28:42;;;;;;;;;17.25;16.00;;;;;12.17;71.15;102393.72;5050489;28;45176;-63
2022/11/12 05:31:07;;;;;;;;;18.00;17.00;;;;;12.23;70.88;102392.22;5054498;28;60066;-63
2022/11/12 05:33:33;;;;;;;;;17.00;14.75;;;;;12.22;69.94;102388.59;5052073;28;45164;-64
2022/11/12 05:35:59;;;;;;;;;18.25;16.50;;;;;12.16;70.55;102391.00;5041421;28;45236;-64
2022/11/12 05:38:24;;;;;;;;;14.00;14.00;;;;;12.15;70.80;102387.41;5050623;28;45222;-64
2022/11/12 05:40:50;;;;;;;;;18.25;16.00;;;;;12.13;70.37;102374.78;5051977;28;45935;-64
2022/11/12 05:43:15;;;;;;;;;19.50;16.75;;;;;12.14;70.19;102390.00;5049218;28;45054;-63
2022/11/12 05:45:44;;;;;;;;;16.25;14.50;;;;;12.11;70.82;102377.41;5062392;28;45204;-64
2022/11/12 05:48:09;;;;;;;;;16.25;14.50;;;;;12.10;70.57;102383.59;5049034;28;46218;-63
2022/11/12 05:50:35;;;;;;;;;14.50;14.00;;;;;12.06;70.40;102381.63;5053275;28;45341;-65
2022/11/12 05:53:00;;;;;;;;;15.00;14.00;;;;;11.96;70.68;102364.22;5051892;28;44965;-65
2022/11/12 05:55:25;;;;;;;;;13.75;12.75;;;;;12.11;69.68;102380.06;5052471;28;45084;-63
2022/11/12 05:57:51;;;;;;;;;14.00;13.00;;;;;12.15;70.19;102378.44;5061953;28;44998;-65
2022/11/12 06:00:16;;;;;;;;;19.50;15.75;;;;;12.15;69.60;102383.81;5051380;28;45363;-64
2022/11/12 06:02:42;;;;;;;;;16.50;12.75;;;;;12.17;70.41;102388.38;5051324;28;45073;-64
2022/11/12 06:05:08;;;;;;;;;20.75;15.00;;;;;12.21;70.04;102401.91;5051362;28;45293;-63
2022/11/12 06:07:33;;;;;;;;;20.00;16.50;;;;;12.10;69.33;102391.63;5054197;28;45577;-64
2022/11/12 06:09:59;;;;;;;;;26.75;24.25;;;;;12.04;69.78;102379.72;5056240;28;45192;-65
2022/11/12 06:12:24;;;;;;;;;22.00;19.50;;;;;12.14;70.32;102403.41;5061673;28;45064;-63
2022/11/12 06:14:49;;;;;;;;;23.75;23.00;;;;;12.12;70.32;102410.44;5051728;28;45172;-64
2022/11/12 06:17:14;;;;;;;;;26.25;22.25;;;;;12.05;70.50;102398.53;5055276;28;45089;-64
2022/11/12 06:19:40;;;;;;;;;22.00;18.50;;;;;12.07;70.72;102393.25;5056914;28;46189;-64
2022/11/12 06:22:05;;;;;;;;;21.25;17.75;;;;;12.09;69.62;102388.88;5053774;28;45604;-63
2022/11/12 06:24:30;;;;;;;;;17.50;15.75;;;;;12.06;70.10;102392.34;5051678;28;45333;-65
2022/11/12 06:26:56;;;;;;;;;20.25;16.00;;;;;12.04;69.97;102383.28;5051926;28;45301;-63
2022/11/12 06:29:21;;;;;;;;;15.25;12.25;;;;;12.09;70.35;102394.22;5051800;28;45066;-63
2022/11/12 06:31:46;;;;;;;;;12.75;12.75;;;;;12.12;70.25;102397.06;5051451;28;45073;-64
2022/11/12 06:34:12;;;;;;;;;16.25;15.00;;;;;12.15;70.43;102400.78;5051945;28;45064;-63
2022/11/12 06:36:37;;;;;;;;;17.25;13.75;;;;;12.16;70.68;102394.59;5052068;28;45204;-64
2022/11/12 06:39:03;;;;;;;;;18.75;15.50;;;;;12.10;69.73;102382.69;5036082;28;45906;-64
2022/11/12 06:41:28;;;;;;;;;16.25;15.50;;;;;12.14;69.76;102390.00;5050882;28;45022;-63
2022/11/12 06:43:53;;;;;;;;;18.50;16.00;;;;;12.16;69.86;102407.09;5051154;28;45120;-64
2022/11/12 06:46:19;;;;;;;;;19.50;15.50;;;;;12.15;69.76;102398.13;5041592;28;45244;-65
2022/11/12 06:48:44;;;;;;;;;19.25;15.75;;;;;12.09;69.70;102408.56;5052635;28;58234;-64
2022/11/12 06:51:18;;;;;;;;;17.75;15.00;;;;;12.06;70.43;102397.72;5042909;28;45113;-64
2022/11/12 06:53:44;;;;;;;;;15.00;15.00;;;;;12.07;69.97;102404.88;5054380;28;45088;-63
2022/11/12 06:56:10;;;;;;;;;36.25;28.00;;;;;12.13;70.44;102405.16;5054784;28;44967;-65
2022/11/12 06:58:36;;;;;;;;;22.25;15.50;;;;;12.14;70.10;102398.03;5055102;28;45847;-63
2022/11/12 07:01:06;;;;;;;;;23.25;20.75;;;;;12.21;68.95;102412.63;5054788;28;45165;-63
2022/11/12 07:03:32;;;;;;;;;36.25;32.50;;;;;12.19;70.24;102415.25;5054344;28;44964;-64
2022/11/12 07:06:01;;;;;;;;;21.75;14.75;;;;;12.12;69.46;102400.66;5054963;28;45021;-63
2022/11/12 07:08:27;;;;;;;;;19.75;19.75;;;;;12.22;69.98;102420.75;5058288;28;45731;-63
2022/11/12 07:10:56;;;;;;;;;19.75;19.00;;;;;12.23;69.89;102422.59;5054956;28;45042;-63
2022/11/12 07:13:22;;;;;;;;;17.25;15.75;;;;;12.04;69.51;102377.94;5054843;28;45109;-65
2022/11/12 07:15:47;;;;;;;;;19.00;15.25;;;;;12.23;69.58;102411.88;5054554;28;45117;-64
2022/11/12 07:18:12;;;;;;;;;17.25;16.00;;;;;12.16;69.05;102404.41;5044968;28;53169;-64
2022/11/12 07:20:37;;;;;;;;;13.75;13.00;;;;;12.02;69.95;102397.47;5054041;28;45222;-64
2022/11/12 07:23:03;;;;;;;;;16.00;16.00;;;;;12.10;69.69;102404.13;5055383;28;59746;-64
2022/11/12 07:25:28;;;;;;;;;18.25;13.25;;;;;12.13;69.35;102409.63;5058236;28;45021;-65
2022/11/12 07:27:54;;;;;;;;;21.50;17.75;;;;;12.16;70.01;102413.34;5057117;28;45282;-65
2022/11/12 07:30:19;;;;;;;;;22.50;16.00;;;;;12.22;69.75;102419.84;5054122;28;45010;-65
2022/11/12 07:32:44;;;;;;;;;36.75;33.50;;;;;12.23;69.03;102422.59;5053134;28;45166;-64
2022/11/12 07:35:10;;;;;;;;;17.50;16.75;;;;;12.17;69.08;102422.31;5057559;28;45401;-63
2022/11/12 07:37:35;;;;;;;;;27.75;23.50;;;;;12.25;69.91;102431.63;5053862;28;45128;-67
2022/11/12 07:40:02;;;;;;;;;17.75;17.75;;;;;12.16;69.62;102417.81;5058668;28;45025;-64
2022/11/12 07:42:31;;;;;;;;;22.00;20.25;;;;;12.26;69.73;102438.81;5054041;28;45064;-64
2022/11/12 07:44:56;;;;;;;;;15.25;14.50;;;;;12.28;68.57;102436.22;5063290;28;45061;-63
2022/11/12 07:47:21;;;;;;;;;52.25;42.25;;;;;12.29;69.19;102441.66;5060831;28;46433;-61
2022/11/12 07:49:46;;;;;;;;;22.50;18.50;;;;;12.15;68.80;102438.31;5062995;28;45064;-61
2022/11/12 07:52:12;;;;;;;;;18.75;18.50;;;;;12.12;69.88;102438.16;5056106;28;45049;-61
2022/11/12 07:54:37;;;;;;;;;20.75;18.25;;;;;12.10;69.39;102441.63;5051852;28;46285;-62
2022/11/12 07:57:02;;;;;;;;;25.25;24.00;;;;;12.06;69.84;102444.97;5055787;28;45694;-63
2022/11/12 07:59:28;;;;;;;;;17.75;16.00;;;;;12.07;70.12;102449.50;5053859;28;48509;-63
2022/11/12 08:01:53;;;;;;;;;19.75;18.50;;;;;12.09;69.42;102450.50;5056938;28;44988;-62
2022/11/12 08:04:18;;;;;;;;;18.75;18.25;;;;;12.11;69.70;102454.16;5053039;28;45064;-62
2022/11/12 08:06:44;;;;;;;;;19.25;14.00;;;;;12.15;69.75;102462.41;5056194;28;45687;-62
2022/11/12 08:09:09;;;;;;;;;19.00;15.00;;;;;12.18;68.88;102461.66;5063382;28;45110;-62
2022/11/12 08:11:35;;;;;;;;;20.25;19.25;;;;;12.22;69.29;102460.94;5053682;28;45447;-62
2022/11/12 08:14:01;;;;;;;;;20.00;15.25;;;;;12.25;69.00;102462.88;5055788;28;45149;-62
2022/11/12 08:16:26;;;;;;;;;21.00;18.75;;;;;12.29;69.95;102460.41;5056763;28;45573;-62
2022/11/12 08:18:51;;;;;;;;;20.25;15.25;;;;;12.26;69.14;102462.00;5055640;28;45013;-61
2022/11/12 08:21:17;;;;;;;;;22.25;20.00;;;;;12.16;69.83;102474.06;5053174;28;45083;-61
2022/11/12 08:23:43;;;;;;;;;22.25;16.50;;;;;12.11;69.98;102470.22;5057917;28;45250;-61
2022/11/12 08:26:14;;;;;;;;;17.50;16.25;;;;;12.03;69.80;102476.97;5059219;28;45284;-62
2022/11/12 08:28:39;;;;;;;;;27.00;20.25;;;;;12.01;69.86;102468.91;5057182;28;45008;-63
2022/11/12 08:31:14;;;;;;;;;15.75;15.50;;;;;12.03;69.56;102471.63;5055771;28;45188;-63
2022/11/12 08:33:40;;;;;;;;;15.75;15.75;;;;;12.03;69.63;102467.22;5052729;28;45049;-62
2022/11/12 08:36:08;;;;;;;;;19.00;16.75;;;;;12.02;70.32;102478.75;5060059;28;45859;-63
2022/11/12 08:38:34;;;;;;;;;18.00;18.00;;;;;12.04;70.12;102479.72;5057913;28;45064;-63
2022/11/12 08:41:07;;;;;;;;;27.75;23.75;;;;;12.08;69.88;102473.69;5061598;28;45029;-63
2022/11/12 08:43:33;;;;;;;;;21.50;20.75;;;;;12.08;70.35;102479.06;5060757;28;45411;-62
2022/11/12 08:46:01;;;;;;;;;17.75;17.75;;;;;12.04;70.51;102462.75;5063253;28;45545;-63
2022/11/12 08:48:27;;;;;;;;;20.00;19.00;;;;;12.18;69.68;102472.38;5065095;28;45090;-62
2022/11/12 08:50:54;;;;;;;;;19.25;18.00;;;;;12.27;69.38;102477.25;5057052;28;45326;-63
2022/11/12 08:53:21;;;;;;;;;27.25;23.00;;;;;12.27;69.38;102482.59;5057081;28;45354;-61
2022/11/12 08:55:46;;;;;;;;;27.00;26.25;;;;;12.32;69.32;102490.03;5052289;28;45703;-62
2022/11/12 08:58:12;;;;;;;;;23.75;22.25;;;;;12.37;69.56;102484.88;5036396;28;45236;-61
2022/11/12 09:00:41;;;;;;;;;30.50;28.50;;;;;12.45;68.98;102477.19;5055244;28;48381;-62
2022/11/12 09:03:11;;;;;;;;;26.50;24.25;;;;;12.19;69.36;102412.56;5054286;28;45086;-62
2022/11/12 09:05:37;;;;;;;;;27.25;21.75;;;;;12.53;69.31;102459.69;5057887;28;45256;-63
2022/11/12 09:08:08;;;;;;;;;29.25;24.00;;;;;12.66;68.91;102470.13;5051439;28;51710;-65
2022/11/12 09:10:34;;;;;;;;;24.25;18.25;;;;;12.68;68.35;102463.06;5052584;28;45155;-63
2022/11/12 09:12:59;;;;;;;;;28.25;22.00;;;;;12.77;68.02;102470.63;5053072;28;45009;-62
2022/11/12 09:15:25;;;;;;;;;26.25;24.50;;;;;12.79;67.53;102466.25;5058409;28;45292;-61
2022/11/12 09:17:55;;;;;;;;;26.50;25.00;;;;;12.89;67.54;102467.59;5055810;28;45181;-62
2022/11/12 09:20:21;;;;;;;;;20.50;16.00;;;;;12.95;67.58;102474.97;5058301;28;45817;-64
2022/11/12 09:22:46;;;;;;;;;24.00;21.50;;;;;13.00;66.95;102474.34;5061059;28;45179;-64
2022/11/12 09:25:11;;;;;;;;;22.50;22.50;;;;;13.03;67.33;102466.44;5052954;28;45951;-64
2022/11/12 09:27:37;;;;;;;;;24.00;17.25;;;;;13.05;67.31;102471.84;5065668;28;45307;-63
2022/11/12 09:30:03;;;;;;;;;32.00;24.75;;;;;13.11;66.69;102471.19;5056118;28;45241;-62
2022/11/12 09:32:29;;;;;;;;;31.75;22.50;;;;;13.18;66.84;102467.94;5057731;28;45111;-63
2022/11/12 09:34:54;;;;;;;;;22.75;22.00;;;;;13.21;66.72;102451.97;5050714;28;45473;-62
2022/11/12 09:37:20;;;;;;;;;26.25;24.00;;;;;13.25;66.00;102459.31;5058445;28;45161;-63
2022/11/12 09:39:45;;;;;;;;;24.00;21.75;;;;;13.24;66.21;102449.41;5054845;28;45233;-62
2022/11/12 09:42:16;;;;;;;;;47.25;38.75;;;;;13.33;65.82;102463.28;5034505;28;45177;-63
2022/11/12 09:44:46;;;;;;;;;26.75;22.50;;;;;13.39;66.21;102463.50;5044520;28;45694;-62
2022/11/12 09:47:19;;;;;;;;;47.75;37.25;;;;;13.45;66.00;102452.13;5071173;28;45191;-63
2022/11/12 09:49:54;;;;;;;;;25.75;24.50;;;;;13.57;65.49;102457.09;5064693;28;45159;-64
2022/11/12 09:52:24;;;;;;;;;29.00;22.25;;;;;13.52;65.81;102456.91;5052335;28;45050;-63
2022/11/12 09:54:57;;;;;;;;;21.25;20.50;;;;;13.52;65.17;102464.94;5051844;28;45665;-63
2022/11/12 09:57:22;;;;;;;;;22.75;21.00;;;;;13.58;65.42;102470.59;5058550;28;45208;-63
2022/11/12 09:59:47;;;;;;;;;28.25;25.25;;;;;13.65;65.69;102463.69;5053125;28;45092;-63
2022/11/12 10:02:44;;;;;;;;;29.00;26.50;;;;;13.71;65.08;102471.06;5052221;28;45321;-63
2022/11/12 10:05:16;;;;;;;;;31.50;24.00;;;;;13.77;64.78;102476.72;5050791;28;45850;-64
2022/11/12 10:08:03;;;;;;;;;27.00;22.50;;;;;13.81;64.67;102481.38;5055747;28;45178;-62
2022/11/12 10:10:46;;;;;;;;;24.75;20.50;;;;;13.88;65.08;102479.84;5051078;28;44976;-62
2022/11/12 10:13:17;;;;;;;;;26.75;23.75;;;;;13.92;64.96;102482.69;5051729;28;45065;-63
2022/11/12 10:19:25;;;;;;;;;22.75;19.75;;;;;14.03;64.66;102469.69;5048766;28;45203;-62
2022/11/12 10:22:05;;;;;;;;;25.00;24.00;;;;;14.03;64.35;102472.41;5063732;28;45430;-63
2022/11/12 10:24:36;;;;;;;;;29.00;23.75;;;;;14.08;64.30;102467.22;5064706;28;45036;-64
2022/11/12 10:27:25;;;;;;;;;23.75;23.75;;;;;14.10;64.58;102465.50;5052714;28;46189;-63
2022/11/12 10:30:05;;;;;;;;;27.25;24.75;;;;;14.15;64.29;102467.50;5053890;28;45176;-63
2022/11/12 10:32:31;;;;;;;;;25.50;22.50;;;;;14.23;64.31;102461.50;5066226;28;45314;-62
2022/11/12 10:34:56;;;;;;;;;28.25;22.75;;;;;14.25;63.77;102449.03;5034363;28;45336;-63
2022/11/12 10:37:41;;;;;;;;;32.25;28.25;;;;;14.33;64.15;102451.16;5067463;28;45310;-63
2022/11/12 10:40:32;;;;;;;;;29.25;26.00;;;;;14.41;63.41;102448.78;5055864;28;45049;-63
2022/11/12 10:43:16;;;;;;;;;31.50;26.50;;;;;14.45;63.67;102445.34;5054153;28;45232;-64
2022/11/12 10:45:43;;;;;;;;;28.75;25.75;;;;;14.52;63.32;102441.13;5041874;28;45188;-62
2022/11/12 10:48:31;;;;;;;;;27.00;25.50;;;;;14.52;63.31;102433.97;5053586;28;45426;-62
2022/11/12 10:50:57;;;;;;;;;34.00;29.75;;;;;14.50;63.31;102441.06;5054694;28;45124;-63
2022/11/12 10:53:36;;;;;;;;;31.50;28.75;;;;;14.51;63.59;102447.34;5054327;28;44902;-63
2022/11/12 10:56:04;;;;;;;;;32.50;28.00;;;;;14.50;63.20;102443.75;5055030;28;45343;-64
2022/11/12 10:58:30;;;;;;;;;29.00;24.75;;;;;14.52;63.30;102443.81;5056165;28;45368;-62
2022/11/12 11:01:03;;;;;;;;;28.50;26.50;;;;;14.60;63.29;102439.66;5060437;28;45224;-62
2022/11/12 11:03:35;;;;;;;;;30.25;26.25;;;;;14.62;63.09;102424.50;5061568;28;45114;-64
2022/11/12 11:06:20;;;;;;;;;29.50;27.00;;;;;14.73;62.54;102424.88;5053946;28;45124;-63
2022/11/12 11:09:06;;;;;;;;;28.00;24.25;;;;;14.77;62.68;102421.44;5062889;28;45122;-64
2022/11/12 11:11:32;;;;;;;;;34.50;30.00;;;;;14.78;62.46;102408.91;5066616;28;45241;-62
2022/11/12 11:14:20;;;;;;;;;34.25;30.50;;;;;14.84;62.49;102411.81;5066883;28;45025;-64
2022/11/12 11:16:48;;;;;;;;;32.00;29.00;;;;;14.93;62.43;102415.75;5063989;28;45071;-62
2022/11/12 11:19:14;;;;;;;;;32.25;30.00;;;;;14.95;62.15;102401.41;5038368;28;47373;-63
2022/11/12 11:21:42;;;;;;;;;35.00;30.50;;;;;15.03;62.15;102399.91;5060441;28;45102;-63
2022/11/12 11:24:13;;;;;;;;;33.00;30.75;;;;;15.03;62.46;102391.81;5060078;28;45138;-62
2022/11/12 11:27:00;;;;;;;;;28.75;27.50;;;;;15.10;62.35;102391.19;5070790;28;45107;-63
2022/11/12 11:29:41;;;;;;;;;31.00;28.50;;;;;15.17;61.69;102392.31;5065282;28;45149;-63
2022/11/12 11:32:24;;;;;;;;;28.50;27.50;;;;;15.27;61.45;102395.34;5061234;28;45258;-63
2022/11/12 11:35:25;;;;;;;;;31.50;30.25;;;;;15.35;60.90;102386.63;5064231;28;45171;-63
2022/11/12 11:37:50;;;;;;;;;31.75;29.25;;;;;15.42;61.14;102372.50;5067570;28;45049;-62
2022/11/12 11:40:29;;;;;;;;;29.75;26.75;;;;;15.47;61.13;102369.06;5064204;28;46431;-65